sensor_id;sensor_type;location;lat;lon;timestamp;pressure;altitude;pressure_sealevel;temperature;humidity
12775;BME280;6451;42.630;23.382;2022-08-21T00:01:44;93955.72;;;18.33;100.00
12775;BME280;6451;42.630;23.382;2022-08-21T00:04:11;93930.31;;;18.19;100.00
12775;BME280;6451;42.630;23.382;2022-08-21T00:06:39;93948.72;;;18.22;100.00
12775;BME280;6451;42.630;23.382;2022-08-21T00:09:07;93951.88;;;18.20;100.00
12775;BME280;6451;42.630;23.382;2022-08-21T00:11:36;93946.81;;;18.19;100.00
12775;BME280;6451;42.630;23.382;2022-08-21T00:14:07;93945.25;;;18.14;100.00
12775;BME280;6451;42.630;23.382;2022-08-21T00:16:35;93941.72;;;18.17;100.00
12775;BME280;6451;42.630;23.382;2022-08-21T00:19:02;93942.91;;;18.13;100.00
12775;BME280;6451;42.630;23.382;2022-08-21T00:21:30;93941.69;;;18.21;100.00
12775;BME280;6451;42.630;23.382;2022-08-21T00:23:57;93929.91;;;18.20;100.00
12775;BME280;6451;42.630;23.382;2022-08-21T00:26:24;93939.28;;;18.26;100.00
12775;BME280;6451;42.630;23.382;2022-08-21T00:28:52;93933.69;;;18.41;100.00
12775;BME280;6451;42.630;23.382;2022-08-21T00:31:20;93935.41;;;18.20;100.00
12775;BME280;6451;42.630;23.382;2022-08-21T00:33:47;93934.28;;;18.14;100.00
12775;BME280;6451;42.630;23.382;2022-08-21T00:36:14;93929.91;;;18.20;100.00
12775;BME280;6451;42.630;23.382;2022-08-21T00:38:41;93939.16;;;18.41;100.00
12775;BME280;6451;42.630;23.382;2022-08-21T00:41:09;93935.97;;;18.46;100.00
12775;BME280;6451;42.630;23.382;2022-08-21T00:43:39;93926.94;;;18.49;100.00
12775;BME280;6451;42.630;23.382;2022-08-21T00:46:07;93929.56;;;18.59;100.00
12775;BME280;6451;42.630;23.382;2022-08-21T00:48:35;93939.38;;;18.60;100.00
12775;BME280;6451;42.630;23.382;2022-08-21T00:51:06;93949.53;;;18.67;100.00
12775;BME280;6451;42.630;23.382;2022-08-21T00:53:35;93942.50;;;18.66;100.00
12775;BME280;6451;42.630;23.382;2022-08-21T00:56:04;93942.53;;;18.59;100.00
12775;BME280;6451;42.630;23.382;2022-08-21T00:58:33;93929.16;;;18.61;100.00
12775;BME280;6451;42.630;23.382;2022-08-21T01:01:03;93933.41;;;18.69;100.00
12775;BME280;6451;42.630;23.382;2022-08-21T01:03:31;93931.06;;;18.71;100.00
12775;BME280;6451;42.630;23.382;2022-08-21T01:06:00;93927.13;;;18.72;100.00
12775;BME280;6451;42.630;23.382;2022-08-21T01:08:28;93921.22;;;18.74;100.00
12775;BME280;6451;42.630;23.382;2022-08-21T01:10:56;93925.53;;;18.75;100.00
12775;BME280;6451;42.630;23.382;2022-08-21T01:13:26;93919.25;;;18.74;100.00
12775;BME280;6451;42.630;23.382;2022-08-21T01:15:55;93923.59;;;18.72;100.00
12775;BME280;6451;42.630;23.382;2022-08-21T01:18:25;93918.88;;;18.72;100.00
12775;BME280;6451;42.630;23.382;2022-08-21T01:21:06;93902.81;;;18.67;100.00
12775;BME280;6451;42.630;23.382;2022-08-21T01:23:34;93905.06;;;18.79;100.00
12775;BME280;6451;42.630;23.382;2022-08-21T01:26:03;93904.66;;;18.77;100.00
12775;BME280;6451;42.630;23.382;2022-08-21T01:28:34;93905.19;;;18.65;100.00
12775;BME280;6451;42.630;23.382;2022-08-21T01:31:06;93910.16;;;18.77;100.00
12775;BME280;6451;42.630;23.382;2022-08-21T01:33:34;93911.03;;;18.71;100.00
12775;BME280;6451;42.630;23.382;2022-08-21T01:36:02;93910.69;;;18.61;100.00
12775;BME280;6451;42.630;23.382;2022-08-21T01:38:30;93910.69;;;18.61;100.00
12775;BME280;6451;42.630;23.382;2022-08-21T01:40:57;93915.31;;;18.75;100.00
12775;BME280;6451;42.630;23.382;2022-08-21T01:43:25;93899.75;;;18.58;100.00
12775;BME280;6451;42.630;23.382;2022-08-21T01:45:51;93911.03;;;18.71;100.00
12775;BME280;6451;42.630;23.382;2022-08-21T01:48:18;93903.47;;;18.78;100.00
12775;BME280;6451;42.630;23.382;2022-08-21T01:50:45;93909.38;;;18.80;100.00
12775;BME280;6451;42.630;23.382;2022-08-21T01:53:14;93909.84;;;18.72;100.00
12775;BME280;6451;42.630;23.382;2022-08-21T01:55:41;93904.38;;;18.68;100.00
12775;BME280;6451;42.630;23.382;2022-08-21T01:58:08;93916.16;;;18.65;100.00
12775;BME280;6451;42.630;23.382;2022-08-21T02:00:35;93922.41;;;18.73;100.00
12775;BME280;6451;42.630;23.382;2022-08-21T02:03:02;93919.72;;;18.66;100.00
12775;BME280;6451;42.630;23.382;2022-08-21T02:05:29;93923.63;;;18.68;100.00
12775;BME280;6451;42.630;23.382;2022-08-21T02:07:57;93923.22;;;18.70;100.00
12775;BME280;6451;42.630;23.382;2022-08-21T02:10:31;93919.72;;;18.62;100.00
12775;BME280;6451;42.630;23.382;2022-08-21T02:12:59;93924.03;;;18.67;100.00
12775;BME280;6451;42.630;23.382;2022-08-21T02:15:27;93934.19;;;18.70;100.00
12775;BME280;6451;42.630;23.382;2022-08-21T02:17:57;93930.66;;;18.69;100.00
12775;BME280;6451;42.630;23.382;2022-08-21T02:20:31;93926.78;;;18.63;100.00
12775;BME280;6451;42.630;23.382;2022-08-21T02:22:58;93914.34;;;18.48;100.00
12775;BME280;6451;42.630;23.382;2022-08-21T02:25:27;93937.53;;;18.47;100.00
12775;BME280;6451;42.630;23.382;2022-08-21T02:27:55;93942.69;;;18.41;100.00
12775;BME280;6451;42.630;23.382;2022-08-21T02:30:24;93934.88;;;18.36;100.00
12775;BME280;6451;42.630;23.382;2022-08-21T02:32:51;93936.50;;;18.30;100.00
12775;BME280;6451;42.630;23.382;2022-08-21T02:35:18;93944.25;;;18.42;100.00
12775;BME280;6451;42.630;23.382;2022-08-21T02:37:51;93937.63;;;18.32;100.00
12775;BME280;6451;42.630;23.382;2022-08-21T02:40:21;93928.31;;;18.23;100.00
12775;BME280;6451;42.630;23.382;2022-08-21T02:42:49;93940.78;;;18.34;100.00
12775;BME280;6451;42.630;23.382;2022-08-21T02:45:17;93912.25;;;18.21;100.00
12775;BME280;6451;42.630;23.382;2022-08-21T02:47:47;93936.34;;;18.48;100.00
12775;BME280;6451;42.630;23.382;2022-08-21T02:50:17;93943.75;;;18.54;100.00
12775;BME280;6451;42.630;23.382;2022-08-21T02:52:46;93944.22;;;18.46;100.00
12775;BME280;6451;42.630;23.382;2022-08-21T02:55:12;93930.06;;;18.47;100.00
12775;BME280;6451;42.630;23.382;2022-08-21T02:57:39;93937.94;;;18.45;100.00
12775;BME280;6451;42.630;23.382;2022-08-21T03:00:09;93936.84;;;18.36;100.00
12775;BME280;6451;42.630;23.382;2022-08-21T03:02:37;93909.47;;;18.25;100.00
12775;BME280;6451;42.630;23.382;2022-08-21T03:05:05;93931.38;;;18.32;100.00
12775;BME280;6451;42.630;23.382;2022-08-21T03:07:32;93921.16;;;18.36;100.00
12775;BME280;6451;42.630;23.382;2022-08-21T03:09:59;93928.91;;;18.45;100.00
12775;BME280;6451;42.630;23.382;2022-08-21T03:12:27;93926.94;;;18.45;100.00
12775;BME280;6451;42.630;23.382;2022-08-21T03:14:53;93932.41;;;18.49;100.00
12775;BME280;6451;42.630;23.382;2022-08-21T03:17:22;93927.28;;;18.51;100.00
12775;BME280;6451;42.630;23.382;2022-08-21T03:19:48;93920.31;;;18.43;100.00
12775;BME280;6451;42.630;23.382;2022-08-21T03:22:15;93916.06;;;18.34;100.00
12775;BME280;6451;42.630;23.382;2022-08-21T03:24:42;93918.34;;;18.43;100.00
12775;BME280;6451;42.630;23.382;2022-08-21T03:27:11;93909.00;;;18.33;100.00
12775;BME280;6451;42.630;23.382;2022-08-21T03:29:38;93912.84;;;18.40;100.00
12775;BME280;6451;42.630;23.382;2022-08-21T03:32:06;93918.09;;;18.27;100.00
12775;BME280;6451;42.630;23.382;2022-08-21T03:34:36;93927.53;;;18.26;100.00
12775;BME280;6451;42.630;23.382;2022-08-21T03:37:04;93936.03;;;18.39;100.00
12775;BME280;6451;42.630;23.382;2022-08-21T03:39:32;93936.84;;;18.36;100.00
12775;BME280;6451;42.630;23.382;2022-08-21T03:41:59;93941.69;;;18.21;100.00
12775;BME280;6451;42.630;23.382;2022-08-21T03:44:27;93944.13;;;18.08;100.00
12775;BME280;6451;42.630;23.382;2022-08-21T03:46:55;93932.44;;;17.93;100.00
12775;BME280;6451;42.630;23.382;2022-08-21T03:49:22;93941.53;;;17.87;100.00
12775;BME280;6451;42.630;23.382;2022-08-21T03:51:51;93935.75;;;17.67;100.00
12775;BME280;6451;42.630;23.382;2022-08-21T03:54:18;93931.84;;;17.71;100.00
12775;BME280;6451;42.630;23.382;2022-08-21T03:56:45;93950.97;;;17.82;100.00
12775;BME280;6451;42.630;23.382;2022-08-21T03:59:12;93945.88;;;17.81;100.00
12775;BME280;6451;42.630;23.382;2022-08-21T04:01:39;93953.72;;;17.82;100.00
12775;BME280;6451;42.630;23.382;2022-08-21T04:04:06;93969.69;;;17.98;100.00
12775;BME280;6451;42.630;23.382;2022-08-21T04:06:33;93965.34;;;18.00;100.00
12775;BME280;6451;42.630;23.382;2022-08-21T04:09:01;93967.03;;;17.87;100.00
12775;BME280;6451;42.630;23.382;2022-08-21T04:11:28;93961.03;;;18.03;100.00
12775;BME280;6451;42.630;23.382;2022-08-21T04:13:55;93960.31;;;17.95;100.00
12775;BME280;6451;42.630;23.382;2022-08-21T04:16:22;93954.81;;;17.92;100.00
12775;BME280;6451;42.630;23.382;2022-08-21T04:18:48;93956.41;;;17.86;100.00
12775;BME280;6451;42.630;23.382;2022-08-21T04:21:16;93948.59;;;17.84;100.00
12775;BME280;6451;42.630;23.382;2022-08-21T04:23:43;93963.91;;;17.82;100.00
12775;BME280;6451;42.630;23.382;2022-08-21T04:26:11;93951.34;;;17.88;100.00
12775;BME280;6451;42.630;23.382;2022-08-21T04:28:38;93962.22;;;17.98;100.00
12775;BME280;6451;42.630;23.382;2022-08-21T04:31:05;93958.34;;;17.92;100.00
12775;BME280;6451;42.630;23.382;2022-08-21T04:33:32;93959.03;;;18.07;100.00
12775;BME280;6451;42.630;23.382;2022-08-21T04:35:58;93951.66;;;17.97;100.00
12775;BME280;6451;42.630;23.382;2022-08-21T04:38:25;93948.50;;;17.98;100.00
12775;BME280;6451;42.630;23.382;2022-08-21T04:40:52;93947.69;;;18.01;100.00
12775;BME280;6451;42.630;23.382;2022-08-21T04:43:21;93954.72;;;18.06;100.00
12775;BME280;6451;42.630;23.382;2022-08-21T04:45:49;93952.47;;;17.90;100.00
12775;BME280;6451;42.630;23.382;2022-08-21T04:48:19;93935.69;;;17.81;100.00
12775;BME280;6451;42.630;23.382;2022-08-21T04:50:50;93942.66;;;17.93;100.00
12775;BME280;6451;42.630;23.382;2022-08-21T04:53:20;93955.16;;;18.01;100.00
12775;BME280;6451;42.630;23.382;2022-08-21T04:55:50;93933.97;;;18.01;100.00
12775;BME280;6451;42.630;23.382;2022-08-21T04:58:21;93935.09;;;18.08;100.00
12775;BME280;6451;42.630;23.382;2022-08-21T05:00:52;93941.78;;;18.06;100.00
12775;BME280;6451;42.630;23.382;2022-08-21T05:03:19;93949.59;;;18.12;100.00
12775;BME280;6451;42.630;23.382;2022-08-21T05:05:47;93933.91;;;18.12;100.00
12775;BME280;6451;42.630;23.382;2022-08-21T05:08:17;93932.66;;;18.17;100.00
12775;BME280;6451;42.630;23.382;2022-08-21T05:10:45;93933.38;;;18.28;100.00
12775;BME280;6451;42.630;23.382;2022-08-21T05:13:12;93934.47;;;18.38;100.00
12775;BME280;6451;42.630;23.382;2022-08-21T05:15:41;93929.91;;;18.65;100.00
12775;BME280;6451;42.630;23.382;2022-08-21T05:18:08;93928.69;;;19.07;100.00
12775;BME280;6451;42.630;23.382;2022-08-21T05:20:35;93924.38;;;19.06;100.00
12775;BME280;6451;42.630;23.382;2022-08-21T05:23:07;93920.97;;;19.29;100.00
12775;BME280;6451;42.630;23.382;2022-08-21T05:25:34;93927.63;;;19.66;100.00
12775;BME280;6451;42.630;23.382;2022-08-21T05:28:01;93922.53;;;19.64;100.00
12775;BME280;6451;42.630;23.382;2022-08-21T05:30:28;93928.22;;;19.77;100.00
12775;BME280;6451;42.630;23.382;2022-08-21T05:32:58;93917.09;;;19.88;100.00
12775;BME280;6451;42.630;23.382;2022-08-21T05:35:25;93910.91;;;19.50;100.00
12775;BME280;6451;42.630;23.382;2022-08-21T05:37:52;93918.78;;;19.78;100.00
12775;BME280;6451;42.630;23.382;2022-08-21T05:40:20;93912.81;;;20.10;100.00
12775;BME280;6451;42.630;23.382;2022-08-21T05:42:47;93902.25;;;20.56;100.00
12775;BME280;6451;42.630;23.382;2022-08-21T05:45:14;93892.78;;;20.57;100.00
12775;BME280;6451;42.630;23.382;2022-08-21T05:47:41;93895.50;;;20.80;100.00
12775;BME280;6451;42.630;23.382;2022-08-21T05:50:11;93895.16;;;20.78;100.00
12775;BME280;6451;42.630;23.382;2022-08-21T05:52:38;93891.50;;;21.04;100.00
12775;BME280;6451;42.630;23.382;2022-08-21T05:55:07;93890.25;;;21.09;100.00
12775;BME280;6451;42.630;23.382;2022-08-21T05:57:34;93888.88;;;20.54;100.00
12775;BME280;6451;42.630;23.382;2022-08-21T06:00:02;93890.91;;;20.73;100.00
12775;BME280;6451;42.630;23.382;2022-08-21T06:02:31;93898.31;;;20.76;100.00
12775;BME280;6451;42.630;23.382;2022-08-21T06:04:58;93902.03;;;20.90;100.00
12775;BME280;6451;42.630;23.382;2022-08-21T06:07:26;93900.72;;;20.74;100.00
12775;BME280;6451;42.630;23.382;2022-08-21T06:09:54;93895.03;;;20.38;100.00
12775;BME280;6451;42.630;23.382;2022-08-21T06:12:21;93907.97;;;20.41;100.00
12775;BME280;6451;42.630;23.382;2022-08-21T06:14:48;93899.06;;;20.57;100.00
12775;BME280;6451;42.630;23.382;2022-08-21T06:17:16;93879.84;;;20.53;100.00
12775;BME280;6451;42.630;23.382;2022-08-21T06:19:42;93889.81;;;20.67;100.00
12775;BME280;6451;42.630;23.382;2022-08-21T06:22:09;93887.97;;;21.04;100.00
12775;BME280;6451;42.630;23.382;2022-08-21T06:24:38;93893.56;;;21.20;100.00
12775;BME280;6451;42.630;23.382;2022-08-21T06:27:07;93891.22;;;21.38;100.00
12775;BME280;6451;42.630;23.382;2022-08-21T06:29:34;93873.47;;;21.40;100.00
12775;BME280;6451;42.630;23.382;2022-08-21T06:32:02;93888.69;;;21.28;100.00
12775;BME280;6451;42.630;23.382;2022-08-21T06:34:31;93884.16;;;21.37;100.00
12775;BME280;6451;42.630;23.382;2022-08-21T06:36:58;93892.19;;;21.08;100.00
12775;BME280;6451;42.630;23.382;2022-08-21T06:39:25;93884.72;;;21.29;100.00
12775;BME280;6451;42.630;23.382;2022-08-21T06:41:53;93879.41;;;22.10;100.00
12775;BME280;6451;42.630;23.382;2022-08-21T06:44:20;93879.75;;;22.12;100.00
12775;BME280;6451;42.630;23.382;2022-08-21T06:46:47;93887.94;;;22.48;100.00
12775;BME280;6451;42.630;23.382;2022-08-21T06:49:14;93880.78;;;22.35;100.00
12775;BME280;6451;42.630;23.382;2022-08-21T06:51:41;93885.19;;;22.48;100.00
12775;BME280;6451;42.630;23.382;2022-08-21T06:54:08;93888.13;;;22.58;100.00
12775;BME280;6451;42.630;23.382;2022-08-21T06:56:35;93877.16;;;22.83;100.00
12775;BME280;6451;42.630;23.382;2022-08-21T06:59:05;93882.28;;;23.01;100.00
12775;BME280;6451;42.630;23.382;2022-08-21T07:01:32;93873.28;;;22.97;100.00
12775;BME280;6451;42.630;23.382;2022-08-21T07:03:58;93875.44;;;23.60;100.00
12775;BME280;6451;42.630;23.382;2022-08-21T07:06:25;93858.84;;;23.73;100.00
12775;BME280;6451;42.630;23.382;2022-08-21T07:08:52;93871.94;;;23.85;100.00
12775;BME280;6451;42.630;23.382;2022-08-21T07:11:21;93875.16;;;23.71;100.00
12775;BME280;6451;42.630;23.382;2022-08-21T07:13:48;93875.00;;;23.62;100.00
12775;BME280;6451;42.630;23.382;2022-08-21T07:16:19;93873.88;;;23.59;100.00
12775;BME280;6451;42.630;23.382;2022-08-21T07:18:46;93866.78;;;23.58;100.00
12775;BME280;6451;42.630;23.382;2022-08-21T07:21:15;93865.03;;;23.10;100.00
12775;BME280;6451;42.630;23.382;2022-08-21T07:23:45;93869.72;;;23.38;100.00
12775;BME280;6451;42.630;23.382;2022-08-21T07:26:14;93879.03;;;23.32;100.00
12775;BME280;6451;42.630;23.382;2022-08-21T07:28:42;93872.50;;;23.38;100.00
12775;BME280;6451;42.630;23.382;2022-08-21T07:31:10;93859.31;;;22.71;100.00
12775;BME280;6451;42.630;23.382;2022-08-21T07:33:41;93863.38;;;22.67;100.00
12775;BME280;6451;42.630;23.382;2022-08-21T07:36:08;93865.59;;;22.88;100.00
12775;BME280;6451;42.630;23.382;2022-08-21T07:38:37;93866.75;;;22.58;100.00
12775;BME280;6451;42.630;23.382;2022-08-21T07:41:10;93866.88;;;22.38;100.00
12775;BME280;6451;42.630;23.382;2022-08-21T07:43:39;93868.34;;;22.27;100.00
12775;BME280;6451;42.630;23.382;2022-08-21T07:46:06;93854.84;;;22.45;100.00
12775;BME280;6451;42.630;23.382;2022-08-21T07:48:33;93861.31;;;22.06;100.00
12775;BME280;6451;42.630;23.382;2022-08-21T07:51:04;93869.09;;;21.95;100.00
12775;BME280;6451;42.630;23.382;2022-08-21T07:53:33;93859.66;;;21.92;100.00
12775;BME280;6451;42.630;23.382;2022-08-21T07:56:00;93866.50;;;22.04;100.00
12775;BME280;6451;42.630;23.382;2022-08-21T07:58:27;93849.50;;;22.38;100.00
12775;BME280;6451;42.630;23.382;2022-08-21T08:00:53;93858.94;;;22.24;100.00
12775;BME280;6451;42.630;23.382;2022-08-21T08:03:20;93867.47;;;22.13;100.00
12775;BME280;6451;42.630;23.382;2022-08-21T08:05:47;93859.28;;;22.10;100.00
12775;BME280;6451;42.630;23.382;2022-08-21T08:08:15;93854.44;;;22.30;100.00
12775;BME280;6451;42.630;23.382;2022-08-21T08:10:43;93847.63;;;22.35;100.00
12775;BME280;6451;42.630;23.382;2022-08-21T08:13:10;93863.84;;;22.49;100.00
12775;BME280;6451;42.630;23.382;2022-08-21T08:15:37;93857.09;;;22.50;100.00
12775;BME280;6451;42.630;23.382;2022-08-21T08:18:04;93858.03;;;22.60;100.00
12775;BME280;6451;42.630;23.382;2022-08-21T08:20:31;93870.81;;;22.54;100.00
12775;BME280;6451;42.630;23.382;2022-08-21T08:22:58;93861.75;;;22.53;100.00
12775;BME280;6451;42.630;23.382;2022-08-21T08:25:27;93867.22;;;22.40;100.00
12775;BME280;6451;42.630;23.382;2022-08-21T08:27:55;93863.47;;;22.63;100.00
12775;BME280;6451;42.630;23.382;2022-08-21T08:30:22;93861.13;;;22.78;100.00
12775;BME280;6451;42.630;23.382;2022-08-21T08:32:49;93863.75;;;22.98;100.00
12775;BME280;6451;42.630;23.382;2022-08-21T08:35:17;93859.81;;;23.12;100.00
12775;BME280;6451;42.630;23.382;2022-08-21T08:37:44;93872.19;;;23.07;100.00
12775;BME280;6451;42.630;23.382;2022-08-21T08:40:14;93865.31;;;23.41;100.00
12775;BME280;6451;42.630;23.382;2022-08-21T08:42:46;93864.56;;;23.40;100.00
12775;BME280;6451;42.630;23.382;2022-08-21T08:45:18;93859.41;;;23.80;100.00
12775;BME280;6451;42.630;23.382;2022-08-21T08:47:50;93851.75;;;23.84;100.00
12775;BME280;6451;42.630;23.382;2022-08-21T08:50:25;93857.84;;;23.92;100.00
12775;BME280;6451;42.630;23.382;2022-08-21T08:52:58;93849.09;;;23.81;100.00
12775;BME280;6451;42.630;23.382;2022-08-21T08:55:30;93855.31;;;23.85;100.00
12775;BME280;6451;42.630;23.382;2022-08-21T08:58:02;93840.69;;;23.97;100.00
12775;BME280;6451;42.630;23.382;2022-08-21T09:00:30;93841.78;;;24.00;100.00
12775;BME280;6451;42.630;23.382;2022-08-21T09:03:00;93832.13;;;23.92;100.00
12775;BME280;6451;42.630;23.382;2022-08-21T09:05:41;93837.69;;;23.66;100.00
12775;BME280;6451;42.630;23.382;2022-08-21T09:08:19;93842.56;;;23.88;100.00
12775;BME280;6451;42.630;23.382;2022-08-21T09:10:56;93842.22;;;23.98;100.00
12775;BME280;6451;42.630;23.382;2022-08-21T09:13:33;93803.88;;;24.09;100.00
12775;BME280;6451;42.630;23.382;2022-08-21T09:16:07;93830.00;;;24.34;100.00
12775;BME280;6451;42.630;23.382;2022-08-21T09:18:45;93833.25;;;24.32;100.00
12775;BME280;6451;42.630;23.382;2022-08-21T09:21:20;93830.13;;;24.05;100.00
12775;BME280;6451;42.630;23.382;2022-08-21T09:23:56;93837.97;;;24.32;100.00
12775;BME280;6451;42.630;23.382;2022-08-21T09:26:26;93830.03;;;24.08;100.00
12775;BME280;6451;42.630;23.382;2022-08-21T09:28:59;93821.91;;;24.39;100.00
12775;BME280;6451;42.630;23.382;2022-08-21T09:31:28;93820.22;;;24.55;100.00
12775;BME280;6451;42.630;23.382;2022-08-21T09:33:59;93829.75;;;24.54;100.00
12775;BME280;6451;42.630;23.382;2022-08-21T09:36:36;93813.97;;;24.63;100.00
12775;BME280;6451;42.630;23.382;2022-08-21T09:39:04;93796.41;;;24.88;100.00
12775;BME280;6451;42.630;23.382;2022-08-21T09:41:34;93779.97;;;24.37;100.00
12775;BME280;6451;42.630;23.382;2022-08-21T09:44:04;93816.31;;;24.52;100.00
12775;BME280;6451;42.630;23.382;2022-08-21T09:46:31;93816.66;;;24.76;100.00
12775;BME280;6451;42.630;23.382;2022-08-21T09:49:01;93802.38;;;24.43;100.00
12775;BME280;6451;42.630;23.382;2022-08-21T09:51:30;93811.88;;;24.55;100.00
12775;BME280;6451;42.630;23.382;2022-08-21T09:54:10;93819.84;;;24.53;100.00
12775;BME280;6451;42.630;23.382;2022-08-21T09:56:40;93809.84;;;24.08;100.00
12775;BME280;6451;42.630;23.382;2022-08-21T09:59:36;93816.63;;;23.81;100.00
12775;BME280;6451;42.630;23.382;2022-08-21T10:02:24;93815.41;;;23.95;100.00
12775;BME280;6451;42.630;23.382;2022-08-21T10:04:54;93801.03;;;23.62;100.00
12775;BME280;6451;42.630;23.382;2022-08-21T10:07:23;93802.91;;;23.65;100.00
12775;BME280;6451;42.630;23.382;2022-08-21T10:09:59;93807.41;;;23.59;100.00
12775;BME280;6451;42.630;23.382;2022-08-21T10:12:31;93806.28;;;23.44;100.00
12775;BME280;6451;42.630;23.382;2022-08-21T10:15:09;93604.44;;;22.18;100.00
12775;BME280;6451;42.630;23.382;2022-08-21T10:17:46;93809.66;;;23.64;100.00
12775;BME280;6451;42.630;23.382;2022-08-21T10:20:19;93799.78;;;24.01;100.00
12775;BME280;6451;42.630;23.382;2022-08-21T10:22:55;93802.28;;;24.21;100.00
12775;BME280;6451;42.630;23.382;2022-08-21T10:25:31;93800.78;;;24.55;100.00
12775;BME280;6451;42.630;23.382;2022-08-21T10:28:04;93801.00;;;24.82;100.00
12775;BME280;6451;42.630;23.382;2022-08-21T10:30:39;93799.75;;;24.83;100.00
12775;BME280;6451;42.630;23.382;2022-08-21T10:33:19;93773.16;;;24.51;100.00
12775;BME280;6451;42.630;23.382;2022-08-21T10:35:55;93786.09;;;24.07;100.00
12775;BME280;6451;42.630;23.382;2022-08-21T10:38:42;93793.59;;;24.45;100.00
12775;BME280;6451;42.630;23.382;2022-08-21T10:41:18;93793.09;;;24.59;100.00
12775;BME280;6451;42.630;23.382;2022-08-21T10:43:52;93787.56;;;24.81;100.00
12775;BME280;6451;42.630;23.382;2022-08-21T10:46:37;93779.41;;;24.30;100.00
12775;BME280;6451;42.630;23.382;2022-08-21T10:49:15;93778.34;;;24.62;100.00
12775;BME280;6451;42.630;23.382;2022-08-21T10:51:54;93772.75;;;24.40;100.00
12775;BME280;6451;42.630;23.382;2022-08-21T10:54:31;93746.13;;;24.30;100.00
12775;BME280;6451;42.630;23.382;2022-08-21T10:57:04;93742.28;;;24.62;100.00
12775;BME280;6451;42.630;23.382;2022-08-21T10:59:38;93758.00;;;24.43;100.00
12775;BME280;6451;42.630;23.382;2022-08-21T11:02:14;93729.34;;;24.90;100.00
12775;BME280;6451;42.630;23.382;2022-08-21T11:04:48;93749.47;;;24.59;100.00
12775;BME280;6451;42.630;23.382;2022-08-21T11:07:20;93742.41;;;24.58;100.00
12775;BME280;6451;42.630;23.382;2022-08-21T11:09:49;93752.47;;;24.65;100.00
12775;BME280;6451;42.630;23.382;2022-08-21T11:12:22;93730.06;;;24.59;100.00
12775;BME280;6451;42.630;23.382;2022-08-21T11:14:54;93729.50;;;24.86;100.00
12775;BME280;6451;42.630;23.382;2022-08-21T11:17:30;93721.41;;;25.23;100.00
12775;BME280;6451;42.630;23.382;2022-08-21T11:20:06;93715.34;;;25.15;100.00
12775;BME280;6451;42.630;23.382;2022-08-21T11:22:39;93725.69;;;24.93;100.00
12775;BME280;6451;42.630;23.382;2022-08-21T11:25:11;93724.66;;;24.78;100.00
12775;BME280;6451;42.630;23.382;2022-08-21T11:27:43;93719.38;;;24.71;100.00
12775;BME280;6451;42.630;23.382;2022-08-21T11:30:12;93722.84;;;25.06;100.00
12775;BME280;6451;42.630;23.382;2022-08-21T11:33:01;93724.25;;;25.10;100.00
12775;BME280;6451;42.630;23.382;2022-08-21T11:35:34;93726.59;;;25.12;100.00
12775;BME280;6451;42.630;23.382;2022-08-21T11:38:19;93734.78;;;24.93;100.00
12775;BME280;6451;42.630;23.382;2022-08-21T11:40:59;93679.56;;;24.64;100.00
12775;BME280;6451;42.630;23.382;2022-08-21T11:43:35;93725.06;;;24.98;100.00
12775;BME280;6451;42.630;23.382;2022-08-21T11:46:14;93729.03;;;24.88;100.00
12775;BME280;6451;42.630;23.382;2022-08-21T11:48:51;93603.75;;;24.02;100.00
12775;BME280;6451;42.630;23.382;2022-08-21T11:51:22;93716.13;;;24.94;100.00
12775;BME280;6451;42.630;23.382;2022-08-21T11:54:02;93723.19;;;25.08;100.00
12775;BME280;6451;42.630;23.382;2022-08-21T11:56:33;93715.63;;;25.08;100.00
12775;BME280;6451;42.630;23.382;2022-08-21T11:59:05;93719.56;;;25.29;100.00
12775;BME280;6451;42.630;23.382;2022-08-21T12:01:40;93697.31;;;25.20;100.00
12775;BME280;6451;42.630;23.382;2022-08-21T12:04:17;93699.75;;;25.09;100.00
12775;BME280;6451;42.630;23.382;2022-08-21T12:06:45;93699.28;;;25.10;100.00
12775;BME280;6451;42.630;23.382;2022-08-21T12:09:30;93695.06;;;25.06;100.00
12775;BME280;6451;42.630;23.382;2022-08-21T12:12:04;93660.66;;;25.34;100.00
12775;BME280;6451;42.630;23.382;2022-08-21T12:14:41;93698.00;;;25.33;100.00
12775;BME280;6451;42.630;23.382;2022-08-21T12:17:17;93700.03;;;25.42;100.00
12775;BME280;6451;42.630;23.382;2022-08-21T12:19:58;93709.47;;;25.13;100.00
12775;BME280;6451;42.630;23.382;2022-08-21T12:22:36;93710.88;;;24.96;100.00
12775;BME280;6451;42.630;23.382;2022-08-21T12:25:07;93708.84;;;24.87;100.00
12775;BME280;6451;42.630;23.382;2022-08-21T12:27:44;93709.47;;;24.91;100.00
12775;BME280;6451;42.630;23.382;2022-08-21T12:30:21;93713.97;;;25.20;100.00
12775;BME280;6451;42.630;23.382;2022-08-21T12:32:55;93714.63;;;25.02;100.00
12775;BME280;6451;42.630;23.382;2022-08-21T12:35:27;93705.59;;;24.89;100.00
12775;BME280;6451;42.630;23.382;2022-08-21T12:38:02;93711.81;;;24.71;100.00
12775;BME280;6451;42.630;23.382;2022-08-21T12:40:39;93708.91;;;24.75;100.00
12775;BME280;6451;42.630;23.382;2022-08-21T12:43:11;93717.13;;;24.56;100.00
12775;BME280;6451;42.630;23.382;2022-08-21T12:45:42;93711.94;;;24.46;100.00
12775;BME280;6451;42.630;23.382;2022-08-21T12:48:14;93708.00;;;24.21;100.00
12775;BME280;6451;42.630;23.382;2022-08-21T12:50:50;93714.22;;;24.25;100.00
12775;BME280;6451;42.630;23.382;2022-08-21T12:53:27;93711.91;;;24.24;100.00
12775;BME280;6451;42.630;23.382;2022-08-21T12:55:56;93717.75;;;24.26;100.00
12775;BME280;6451;42.630;23.382;2022-08-21T12:58:27;93705.38;;;24.18;100.00
12775;BME280;6451;42.630;23.382;2022-08-21T13:01:01;93692.75;;;24.17;100.00
12775;BME280;6451;42.630;23.382;2022-08-21T13:03:30;93684.25;;;23.98;100.00
12775;BME280;6451;42.630;23.382;2022-08-21T13:05:59;93702.81;;;24.23;100.00